Time;durP1;ratioP1;P1;durP2;ratioP2;P2;SDS_P1;SDS_P2;PMS_P1;PMS_P2;Temp;Humidity;BMP_temperature;BMP_pressure;BME280_temperature;BME280_humidity;BME280_pressure;Samples;Min_cycle;Max_cycle;Signal;HPM_P1;HPM_P2
2022/06/24 00:00:17;;;;;;;3.45;1.45;;;16.80;95.80;16.80;98638.00;;;;4971498;28;87037;-58
2022/06/24 00:02:50;;;;;;;2.47;1.20;;;16.80;95.70;16.80;98639.00;;;;4981688;28;87518;-59
2022/06/24 00:05:17;;;;;;;3.22;1.17;;;;;16.80;98644.00;;;;4983356;28;87119;-58
2022/06/24 00:07:50;;;;;;;1.77;0.95;;;16.80;97.50;16.80;98643.00;;;;4984317;28;87157;-58
2022/06/24 00:10:20;;;;;;;1.95;1.10;;;16.80;97.80;16.80;98639.00;;;;4984388;28;86863;-57
2022/06/24 00:12:49;;;;;;;3.13;1.30;;;16.70;98.20;16.70;98645.00;;;;4983296;28;87745;-58
2022/06/24 00:15:22;;;;;;;1.90;1.20;;;;;16.70;98637.00;;;;4966276;28;87332;-58
2022/06/24 00:17:48;;;;;;;3.08;1.13;;;;;16.70;98647.00;;;;4983824;28;87076;-60
2022/06/24 00:20:20;;;;;;;3.00;1.70;;;16.70;98.00;16.70;98643.00;;;;4983832;28;87018;-57
2022/06/24 00:22:52;;;;;;;;;;;16.70;98.80;16.70;98641.00;;;;4965749;28;88807;-56
2022/06/24 00:25:24;;;;;;;2.90;1.42;;;16.60;96.20;16.60;98652.00;;;;4981385;28;87708;-58
2022/06/24 00:28:02;;;;;;;3.63;2.00;;;16.60;98.30;16.60;98649.00;;;;4982895;28;88001;-57
2022/06/24 00:30:29;;;;;;;2.53;1.25;;;16.60;96.60;16.50;98644.00;;;;4982469;28;87007;-60
2022/06/24 00:33:08;;;;;;;3.40;1.58;;;16.60;96.70;16.60;98657.00;;;;4964968;28;88214;-57
2022/06/24 00:35:48;;;;;;;3.97;1.30;;;16.60;96.80;16.60;98656.00;;;;4982683;28;87459;-58
2022/06/24 00:38:40;;;;;;;3.10;1.50;;;16.50;97.10;16.50;98649.00;;;;4983730;28;87290;-58
2022/06/24 00:41:12;;;;;;;1.88;1.40;;;16.60;97.20;16.50;98660.00;;;;4973072;28;86292;-60
2022/06/24 00:43:41;;;;;;;3.28;1.38;;;;;16.50;98656.00;;;;4964676;28;87651;-60
2022/06/24 00:46:19;;;;;;;4.18;1.30;;;16.60;97.20;16.60;98658.00;;;;4979455;28;87335;-60
2022/06/24 00:48:54;;;;;;;3.53;1.25;;;16.60;99.30;16.60;98661.00;;;;4972688;28;88385;-59
2022/06/24 00:51:22;;;;;;;3.45;1.20;;;16.60;97.20;16.60;98662.00;;;;4983123;28;86967;-59
2022/06/24 00:53:54;;;;;;;4.95;1.63;;;16.60;99.80;16.60;98675.00;;;;4982193;28;87388;-57
2022/06/24 00:56:25;;;;;;;2.47;1.20;;;16.70;99.90;16.60;98678.00;;;;4982599;28;87269;-56
2022/06/24 00:59:04;;;;;;;2.70;1.30;;;16.60;99.40;16.60;98668.00;;;;4983427;28;86879;-60
2022/06/24 01:01:36;;;;;;;2.10;1.38;;;16.60;99.80;16.60;98675.00;;;;4980981;28;88190;-58
2022/06/24 01:04:07;;;;;;;4.03;1.55;;;16.60;97.30;16.60;98668.00;;;;4965333;28;87904;-57
2022/06/24 01:06:35;;;;;;;4.57;2.00;;;16.70;99.70;16.70;98675.00;;;;4981611;28;88674;-58
2022/06/24 01:09:02;;;;;;;4.32;1.55;;;16.70;97.00;16.70;98665.00;;;;4983361;28;86857;-58
2022/06/24 01:11:30;;;;;;;8.05;1.83;;;16.80;99.30;16.80;98667.00;;;;4982844;28;86891;-58
2022/06/24 01:13:56;;;;;;;5.82;1.75;;;16.70;99.40;16.80;98674.00;;;;4981383;28;88024;-58
2022/06/24 01:16:24;;;;;;;4.88;1.60;;;16.80;98.80;16.80;98672.00;;;;4965326;28;90726;-58
2022/06/24 01:19:09;;;;;;;4.57;1.92;;;16.80;96.40;16.80;98674.00;;;;4982881;28;88112;-58
2022/06/24 01:21:42;;;;;;;4.30;1.67;;;16.80;98.30;16.80;98684.00;;;;4982646;28;87552;-58
2022/06/24 01:24:15;;;;;;;4.93;1.63;;;16.80;96.40;16.80;98678.00;;;;4981606;28;87700;-60
2022/06/24 01:26:48;;;;;;;6.40;1.75;;;16.80;98.80;16.80;98665.00;;;;4981505;28;87451;-58
2022/06/24 01:29:15;;;;;;;6.68;1.65;;;16.80;96.30;16.80;98678.00;;;;4969133;28;87214;-58
2022/06/24 01:31:48;;;;;;;4.78;1.38;;;16.80;99.00;16.80;98676.00;;;;4982074;28;86417;-58
2022/06/24 01:34:17;;;;;;;4.43;1.67;;;16.80;99.40;16.80;98676.00;;;;4982130;28;88771;-58
2022/06/24 01:36:43;;;;;;;9.48;2.03;;;16.80;99.50;16.80;98683.00;;;;4981713;28;89353;-58
2022/06/24 01:39:09;;;;;;;5.13;2.20;;;;;16.70;98683.00;;;;4982293;28;87922;-58
2022/06/24 01:41:37;;;;;;;7.28;1.50;;;16.70;97.40;16.70;98690.00;;;;4981976;28;87000;-57
2022/06/24 01:44:04;;;;;;;5.50;1.50;;;;;16.70;98687.00;;;;4981399;28;87709;-58
2022/06/24 01:46:30;;;;;;;8.55;1.52;;;16.70;97.30;16.80;98678.00;;;;4981910;28;87068;-58
2022/06/24 01:48:57;;;;;;;8.80;1.95;;;16.80;99.90;16.80;98677.00;;;;4982230;28;87500;-58
2022/06/24 01:51:25;;;;;;;3.35;1.67;;;16.80;99.60;16.90;98678.00;;;;4982193;28;87194;-58
2022/06/24 01:53:51;;;;;;;6.70;1.75;;;17.20;99.50;17.30;98690.00;;;;4964312;28;88972;-58
2022/06/24 01:56:17;;;;;;;4.18;1.75;;;;;18.10;98693.00;;;;4982142;28;87198;-58
2022/06/24 01:58:44;;;;;;;4.65;1.50;;;18.50;95.00;18.90;98694.00;;;;4981972;28;86911;-58
2022/06/24 02:01:11;;;;;;;5.85;1.50;;;;;19.70;98689.00;;;;4964068;28;87076;-58
2022/06/24 02:03:38;;;;;;;2.15;1.55;;;;;20.50;98693.00;;;;4981098;28;89823;-58
2022/06/24 02:06:09;;;;;;;4.78;1.88;;;20.60;94.70;21.10;98692.00;;;;4980907;28;89416;-58
2022/06/24 02:08:36;;;;;;;5.28;1.85;;;;;21.80;98699.00;;;;4982198;28;86877;-58
2022/06/24 02:13:49;;;;;;;5.40;1.60;;;22.50;91.90;23.10;98698.00;;;;4981231;28;88522;-58
2022/06/24 02:16:18;;;;;;;3.25;1.73;;;22.80;91.30;23.50;98682.00;;;;4981637;28;87650;-60
2022/06/24 02:18:46;;;;;;;6.10;1.70;;;23.30;90.90;23.90;98693.00;;;;4981694;28;86915;-60
2022/06/24 02:21:12;;;;;;;4.88;1.90;;;;;24.30;98692.00;;;;4982369;28;86201;-60
2022/06/24 02:23:39;;;;;;;4.50;1.65;;;;;24.70;98696.00;;;;4980597;28;88781;-60
2022/06/24 02:26:06;;;;;;;3.53;1.77;;;;;24.90;98689.00;;;;4980890;28;87374;-60
2022/06/24 02:28:32;;;;;;;4.43;1.90;;;;;25.10;98694.00;;;;4979559;28;87890;-60
2022/06/24 02:31:01;;;;;;;3.53;1.80;;;24.80;86.90;25.40;98705.00;;;;4981656;28;86983;-60
2022/06/24 02:33:28;;;;;;;5.70;1.70;;;24.60;86.00;25.40;98703.00;;;;4981362;28;87687;-61
2022/06/24 02:35:55;;;;;;;3.13;1.50;;;24.60;85.60;25.30;98699.00;;;;4981033;28;87779;-61
2022/06/24 02:38:21;;;;;;;5.63;2.05;;;;;25.80;98691.00;;;;4964343;28;86963;-60
2022/06/24 02:40:48;;;;;;;5.90;1.63;;;;;26.20;98699.00;;;;4981383;28;86995;-60
2022/06/24 02:43:16;;;;;;;2.88;1.67;;;;;26.60;98698.00;;;;4981004;28;87643;-60
2022/06/24 02:45:53;;;;;;;2.10;1.30;;;26.20;76.80;27.10;98703.00;;;;4964102;28;87180;-60
2022/06/24 02:48:21;;;;;;;4.88;1.55;;;26.50;79.30;27.30;98703.00;;;;4979464;28;87978;-60
2022/06/24 02:50:50;;;;;;;4.15;1.42;;;26.60;77.80;27.40;98707.00;;;;4981412;28;87013;-60
2022/06/24 02:53:18;;;;;;;4.68;1.77;;;26.80;73.90;27.60;98714.00;;;;4966428;28;88386;-59
2022/06/24 02:55:47;;;;;;;5.57;1.60;;;27.00;77.90;27.80;98716.00;;;;4979452;28;88833;-58
2022/06/24 02:58:14;;;;;;;6.38;1.40;;;27.10;75.90;28.00;98722.00;;;;4981317;28;86905;-58
2022/06/24 03:00:43;;;;;;;2.90;1.40;;;;;28.00;98722.00;;;;4980937;28;87196;-58
2022/06/24 03:03:12;;;;;;;4.38;1.60;;;26.60;77.10;27.60;98720.00;;;;4981215;28;87026;-58
2022/06/24 03:05:38;;;;;;;4.90;1.15;;;;;27.70;98727.00;;;;4977105;28;87298;-58
2022/06/24 03:08:05;;;;;;;3.53;1.38;;;27.10;76.00;27.80;98726.00;;;;4981380;28;86918;-58
2022/06/24 03:10:32;;;;;;;3.42;1.50;;;;;27.30;98725.00;;;;4981961;28;86253;-58
2022/06/24 03:12:59;;;;;;;6.60;1.40;;;;;27.10;98726.00;;;;4984675;28;87543;-58
2022/06/24 03:15:25;;;;;;;6.75;1.75;;;26.60;72.20;27.40;98729.00;;;;4984119;28;87440;-59
2022/06/24 03:17:51;;;;;;;7.82;1.60;;;26.70;70.00;27.50;98732.00;;;;4969970;28;87920;-59
2022/06/24 03:20:18;;;;;;;3.63;1.63;;;;;26.90;98738.00;;;;4985018;28;86944;-59
2022/06/24 03:22:44;;;;;;;2.55;1.40;;;;;27.10;98724.00;;;;4983993;28;87866;-59
2022/06/24 03:25:11;;;;;;;4.63;2.20;;;;;27.60;98740.00;;;;4983233;28;87754;-59
2022/06/24 03:27:37;;;;;;;6.10;1.65;;;;;28.00;98731.00;;;;4983342;28;87426;-59
2022/06/24 03:30:06;;;;;;;5.82;1.77;;;27.50;69.30;28.50;98743.00;;;;4984024;28;87222;-59
2022/06/24 03:32:33;;;;;;;4.00;2.00;;;27.10;70.10;28.10;98747.00;;;;4983673;28;87748;-59
2022/06/24 03:35:00;;;;;;;4.10;1.67;;;;;28.20;98740.00;;;;4983905;28;87445;-58
2022/06/24 03:37:28;;;;;;;4.20;1.67;;;27.70;69.70;28.40;98746.00;;;;4984209;28;87113;-59
2022/06/24 03:39:55;;;;;;;7.63;1.70;;;27.80;73.60;28.60;98740.00;;;;4984086;28;87011;-59
2022/06/24 03:42:22;;;;;;;3.90;1.95;;;;;28.80;98748.00;;;;4983082;28;88608;-59
2022/06/24 03:44:48;;;;;;;3.50;1.90;;;;;27.90;98748.00;;;;4967945;28;89973;-59
2022/06/24 03:47:15;;;;;;;4.07;1.63;;;;;27.00;98748.00;;;;4964631;28;87353;-59
2022/06/24 03:49:42;;;;;;;4.07;1.70;;;;;26.30;98755.00;;;;4964589;28;86957;-58
2022/06/24 03:52:08;;;;;;;4.85;1.92;;;;;25.70;98758.00;;;;4963884;28;87752;-59
2022/06/24 03:54:35;;;;;;;6.28;1.88;;;;;25.20;98752.00;;;;4963359;28;87343;-58
2022/06/24 03:57:02;;;;;;;4.85;1.95;;;25.00;79.70;25.70;98764.00;;;;4964637;28;87344;-59
2022/06/24 03:59:28;;;;;;;3.47;1.70;;;25.40;79.40;26.10;98761.00;;;;4964786;28;86574;-58
2022/06/24 04:01:55;;;;;;;5.10;1.73;;;25.80;78.20;26.60;98749.00;;;;4962852;28;87812;-58
2022/06/24 04:04:21;;;;;;;5.40;1.95;;;25.10;79.20;25.70;98759.00;;;;4963616;28;87532;-59
2022/06/24 04:06:48;;;;;;;4.40;2.17;;;;;25.70;98769.00;;;;4963864;28;87977;-59
2022/06/24 04:09:14;;;;;;;5.80;2.10;;;24.40;78.60;25.10;98762.00;;;;4964237;28;87009;-58
2022/06/24 04:11:40;;;;;;;6.00;2.13;;;;;25.70;98755.00;;;;4964072;28;87728;-58
2022/06/24 04:14:07;;;;;;;7.20;2.17;;;;;25.80;98759.00;;;;4963169;28;87377;-58
2022/06/24 04:16:33;;;;;;;7.07;2.17;;;;;25.80;98765.00;;;;4963999;28;86868;-59
2022/06/24 04:18:59;;;;;;;10.50;1.95;;;;;26.00;98761.00;;;;4963587;28;87073;-58
2022/06/24 04:21:27;;;;;;;7.00;2.15;;;;;26.30;98763.00;;;;4961782;28;88575;-58
2022/06/24 04:23:54;;;;;;;8.95;2.20;;;;;26.50;98761.00;;;;4961132;28;87417;-58
2022/06/24 04:26:20;;;;;;;5.55;2.22;;;26.00;80.50;26.90;98762.00;;;;4961937;28;88071;-58
2022/06/24 04:28:49;;;;;;;7.47;2.00;;;26.10;80.70;27.00;98769.00;;;;4962377;28;88002;-58
2022/06/24 04:31:15;;;;;;;6.20;1.80;;;26.50;78.80;27.40;98765.00;;;;4962311;28;89170;-58
2022/06/24 04:33:41;;;;;;;7.43;2.05;;;;;26.90;98771.00;;;;4962658;28;88377;-58
2022/06/24 04:36:14;;;;;;;7.75;1.98;;;26.60;75.20;27.40;98771.00;;;;4963237;28;87578;-58
2022/06/24 04:38:41;;;;;;;6.38;2.10;;;26.90;73.80;27.80;98765.00;;;;4963398;28;86972;-58
2022/06/24 04:41:18;;;;;;;7.15;1.92;;;26.70;73.20;27.60;98774.00;;;;4962616;28;87590;-58
2022/06/24 04:43:45;;;;;;;3.47;1.73;;;;;27.60;98774.00;;;;4968403;28;87191;-60
2022/06/24 04:46:11;;;;;;;4.97;1.75;;;;;27.00;98776.00;;;;4980526;28;87869;-58
2022/06/24 04:48:38;;;;;;;7.00;1.77;;;;;26.90;98765.00;;;;4983087;28;86853;-58
2022/06/24 04:51:04;;;;;;;8.13;2.83;;;26.50;80.00;27.30;98764.00;;;;4982300;28;88223;-58
2022/06/24 04:53:31;;;;;;;7.25;1.92;;;26.70;79.30;27.60;98765.00;;;;4981926;28;87352;-58
2022/06/24 04:55:58;;;;;;;7.85;2.28;;;27.10;79.60;27.80;98769.00;;;;4964568;28;88329;-58
2022/06/24 04:58:24;;;;;;;4.00;2.10;;;;;28.10;98775.00;;;;4983037;28;86957;-58
2022/06/24 05:00:51;;;;;;;5.57;1.75;;;27.20;76.90;28.00;98773.00;;;;4981970;28;87923;-60
2022/06/24 05:03:17;;;;;;;4.45;1.75;;;;;27.00;98773.00;;;;4982367;28;87624;-58
2022/06/24 05:05:43;;;;;;;5.85;1.63;;;26.40;72.80;27.20;98777.00;;;;4982592;28;86954;-59
2022/06/24 05:08:10;;;;;;;5.70;2.38;;;26.60;73.00;27.50;98775.00;;;;4982765;28;86925;-60
2022/06/24 05:10:36;;;;;;;5.38;1.50;;;26.80;71.40;27.80;98778.00;;;;4982466;28;87930;-59
2022/06/24 05:13:02;;;;;;;7.80;1.73;;;;;28.40;98776.00;;;;4982483;28;87587;-60
2022/06/24 05:15:28;;;;;;;4.55;1.48;;;28.10;72.70;29.10;98777.00;;;;4982210;28;87069;-60
2022/06/24 05:17:54;;;;;;;3.83;1.35;;;28.10;67.30;29.00;98775.00;;;;4982359;28;87343;-60
2022/06/24 05:20:21;;;;;;;6.05;1.45;;;;;29.00;98777.00;;;;4981498;28;89018;-60
2022/06/24 05:22:47;;;;;;;3.00;1.40;;;;;29.20;98774.00;;;;4981750;28;88519;-60
2022/06/24 05:25:14;;;;;;;6.25;1.65;;;;;29.60;98778.00;;;;4981751;28;87330;-60
2022/06/24 05:27:40;;;;;;;4.32;1.45;;;;;29.50;98774.00;;;;4981287;28;87043;-60
2022/06/24 05:30:07;;;;;;;5.95;1.45;;;28.20;71.10;29.30;98770.00;;;;4980273;28;87741;-60
2022/06/24 05:32:34;;;;;;;4.10;1.73;;;;;28.80;98774.00;;;;4981517;28;88210;-60
2022/06/24 05:35:00;;;;;;;2.10;1.23;;;;;28.60;98774.00;;;;4980453;28;86959;-60
2022/06/24 05:37:27;;;;;;;2.75;1.40;;;;;28.50;98778.00;;;;4982757;28;86526;-60
2022/06/24 05:39:53;;;;;;;5.65;1.60;;;;;28.80;98786.00;;;;4981758;28;87754;-60
2022/06/24 05:42:20;;;;;;;4.43;1.60;;;;;28.70;98776.00;;;;4981574;28;87179;-60
2022/06/24 05:44:46;;;;;;;4.82;1.50;;;;;27.30;98786.00;;;;4980819;28;88300;-60
2022/06/24 05:47:12;;;;;;;2.78;1.30;;;;;26.80;98779.00;;;;4981855;28;87019;-59
2022/06/24 05:49:39;;;;;;;5.55;1.60;;;;;26.30;98780.00;;;;4981988;28;87954;-60
2022/06/24 05:52:06;;;;;;;5.15;1.40;;;25.30;71.20;25.90;98776.00;;;;4981373;28;87585;-59
2022/06/24 05:57:18;;;;;;;3.55;1.27;;;;;27.50;98765.00;;;;4980424;28;87364;-59
2022/06/24 05:59:44;;;;;;;3.80;1.55;;;;;27.40;98770.00;;;;4981870;28;88081;-59
2022/06/24 06:02:11;;;;;;;7.97;1.55;;;26.10;68.00;26.70;98773.00;;;;4981602;28;87434;-59
2022/06/24 06:04:37;;;;;;;3.60;1.60;;;26.10;68.70;26.80;98764.00;;;;4948133;28;87023;-59
2022/06/24 06:07:03;;;;;;;2.97;1.60;;;;;26.90;98772.00;;;;4981293;28;87024;-59
2022/06/24 06:09:30;;;;;;;3.22;1.60;;;;;26.90;98775.00;;;;4981315;28;89178;-59
2022/06/24 06:11:58;;;;;;;2.65;1.30;;;26.20;68.60;27.10;98762.00;;;;4964257;28;88380;-59
2022/06/24 06:14:24;;;;;;;3.67;1.27;;;;;26.60;98770.00;;;;4981264;28;87199;-59
2022/06/24 06:16:50;;;;;;;6.57;1.65;;;25.80;68.50;26.70;98760.00;;;;4981612;28;87027;-59
2022/06/24 06:19:17;;;;;;;9.52;1.60;;;;;27.00;98776.00;;;;4981428;28;87651;-59
2022/06/24 06:21:45;;;;;;;3.15;1.40;;;;;26.30;98759.00;;;;4981296;28;87446;-59
2022/06/24 06:24:11;;;;;;;4.63;1.20;;;;;26.70;98762.00;;;;4981071;28;87056;-60
2022/06/24 06:26:38;;;;;;;3.72;1.40;;;;;25.50;98755.00;;;;4981034;28;86674;-59
2022/06/24 06:29:04;;;;;;;3.13;1.25;;;;;25.70;98752.00;;;;4980215;28;87974;-59
2022/06/24 06:31:31;;;;;;;2.67;1.33;;;;;25.40;98758.00;;;;4981148;28;87424;-59
2022/06/24 06:33:57;;;;;;;3.65;1.30;;;;;25.20;98758.00;;;;4980733;28;88103;-59
2022/06/24 06:36:24;;;;;;;3.13;1.40;;;;;24.60;98752.00;;;;4981022;28;87467;-59
2022/06/24 06:38:50;;;;;;;8.63;1.30;;;;;23.60;98742.00;;;;4981295;28;87672;-59
2022/06/24 06:41:20;;;;;;;7.28;1.77;;;23.30;73.70;23.50;98769.00;;;;4980661;28;88417;-59
2022/06/24 06:43:46;;;;;;;5.80;1.48;;;;;23.60;98759.00;;;;4980565;28;87963;-58
2022/06/24 06:46:13;;;;;;;2.05;1.23;;;;;23.50;98763.00;;;;4983098;28;87426;-59
2022/06/24 06:48:40;;;;;;;4.75;1.73;;;23.20;72.70;23.30;98767.00;;;;4985485;28;87911;-60
2022/06/24 06:51:07;;;;;;;2.75;1.23;;;;;23.20;98765.00;;;;4987510;28;87264;-59
2022/06/24 06:53:33;;;;;;;2.17;1.38;;;;;23.20;98758.00;;;;4987437;28;86912;-59
2022/06/24 06:56:00;;;;;;;2.13;1.10;;;;;23.20;98751.00;;;;4969443;28;87157;-59
2022/06/24 06:58:26;;;;;;;2.63;1.10;;;23.30;73.70;23.40;98750.00;;;;4987314;28;88828;-60
2022/06/24 07:00:52;;;;;;;5.18;1.42;;;;;23.30;98745.00;;;;4969991;28;91290;-59
2022/06/24 07:03:19;;;;;;;1.58;1.10;;;23.50;78.60;23.50;98745.00;;;;4987596;28;87468;-60
2022/06/24 07:05:46;;;;;;;2.35;1.45;;;;;23.70;98749.00;;;;4987413;28;87088;-59
2022/06/24 07:08:13;;;;;;;4.63;1.10;;;23.50;79.50;23.60;98767.00;;;;4987725;28;88039;-59
2022/06/24 07:10:40;;;;;;;5.75;1.55;;;23.10;79.40;23.20;98755.00;;;;4987585;28;87328;-60
2022/06/24 07:13:07;;;;;;;7.15;1.70;;;23.10;81.00;23.20;98748.00;;;;4969780;28;87039;-59
2022/06/24 07:15:33;;;;;;;3.85;1.75;;;22.80;80.70;23.00;98768.00;;;;4987382;28;86432;-59
2022/06/24 07:18:01;;;;;;;3.15;1.30;;;23.00;80.90;23.10;98753.00;;;;4986820;28;88429;-59
2022/06/24 07:20:27;;;;;;;7.53;1.20;;;22.90;75.90;23.10;98744.00;;;;4987817;28;86884;-59
2022/06/24 07:22:53;;;;;;;5.50;1.52;;;23.00;75.60;23.10;98740.00;;;;4986182;28;88002;-59
2022/06/24 07:25:20;;;;;;;9.40;1.58;;;23.00;76.70;23.10;98741.00;;;;4986324;28;87418;-59
2022/06/24 07:27:46;;;;;;;2.58;1.40;;;;;23.20;98750.00;;;;4986288;28;87936;-59
2022/06/24 07:30:13;;;;;;;3.00;1.30;;;23.20;80.20;23.30;98757.00;;;;4986265;28;87366;-59
2022/06/24 07:32:39;;;;;;;2.80;1.10;;;;;23.40;98763.00;;;;4984986;28;87106;-59
2022/06/24 07:35:06;;;;;;;3.50;1.40;;;23.20;79.70;23.30;98745.00;;;;4986733;28;87026;-59
2022/06/24 07:37:33;;;;;;;5.55;1.52;;;;;23.30;98748.00;;;;4986896;28;87778;-58
2022/06/24 07:39:59;;;;;;;2.97;1.30;;;;;23.50;98753.00;;;;4987656;28;87379;-58
2022/06/24 07:42:26;;;;;;;5.50;1.90;;;;;23.50;98756.00;;;;4985922;28;87425;-58
2022/06/24 07:44:52;;;;;;;4.95;1.63;;;;;23.60;98748.00;;;;4985878;28;87077;-58
2022/06/24 07:47:18;;;;;;;8.05;1.60;;;23.30;77.30;23.40;98745.00;;;;4992740;28;88709;-59
2022/06/24 07:49:45;;;;;;;5.90;1.67;;;;;23.30;98752.00;;;;4987160;28;87094;-59
2022/06/24 07:52:11;;;;;;;4.97;1.33;;;23.20;81.60;23.40;98732.00;;;;4968373;28;87165;-58
2022/06/24 07:54:38;;;;;;;4.22;1.50;;;23.40;81.80;23.50;98743.00;;;;4986675;28;87309;-59
2022/06/24 07:57:05;;;;;;;3.78;1.50;;;23.50;81.10;23.60;98750.00;;;;4986100;28;87815;-60
2022/06/24 07:59:37;;;;;;;3.30;1.27;;;23.50;75.90;23.50;98750.00;;;;4982889;28;88116;-60
2022/06/24 08:02:07;;;;;;;2.80;1.55;;;23.50;80.60;23.50;98738.00;;;;4983525;28;87016;-59
2022/06/24 08:04:34;;;;;;;3.33;1.50;;;23.60;82.60;23.60;98737.00;;;;4966363;28;86467;-60
2022/06/24 08:07:02;;;;;;;3.63;1.60;;;23.50;81.40;23.60;98730.00;;;;4983241;28;87899;-57
2022/06/24 08:09:36;;;;;;;4.40;1.58;;;23.50;77.40;23.70;98733.00;;;;4983827;28;87347;-58
2022/06/24 08:12:03;;;;;;;4.65;1.58;;;;;23.70;98732.00;;;;4976571;28;89300;-59
2022/06/24 08:14:30;;;;;;;3.88;1.92;;;23.60;77.80;23.70;98753.00;;;;4965650;28;87162;-59
2022/06/24 08:16:56;;;;;;;3.13;1.65;;;;;23.60;98741.00;;;;4983031;28;88531;-59
2022/06/24 08:19:23;;;;;;;2.88;1.50;;;;;23.80;98740.00;;;;4983569;28;87444;-59
2022/06/24 08:21:50;;;;;;;6.03;1.35;;;;;24.00;98724.00;;;;4983405;28;86979;-59
2022/06/24 08:24:16;;;;;;;4.63;1.80;;;24.10;77.70;24.30;98738.00;;;;4982003;28;87352;-60
2022/06/24 08:26:42;;;;;;;4.38;1.42;;;;;24.20;98740.00;;;;4982412;28;87742;-59
2022/06/24 08:29:10;;;;;;;4.07;1.70;;;24.00;77.20;24.10;98745.00;;;;4982022;28;87356;-59
2022/06/24 08:31:37;;;;;;;4.95;1.52;;;;;24.10;98731.00;;;;4982920;28;87148;-60
2022/06/24 08:34:03;;;;;;;5.10;1.70;;;23.80;77.10;23.90;98739.00;;;;4982905;28;87037;-60
2022/06/24 08:36:30;;;;;;;5.25;1.70;;;;;23.60;98721.00;;;;4964516;28;88561;-57
2022/06/24 08:38:56;;;;;;;6.65;1.65;;;23.70;82.90;23.80;98712.00;;;;4983050;28;88283;-58
2022/06/24 08:41:26;;;;;;;5.60;1.60;;;23.50;82.80;23.70;98729.00;;;;4982956;28;87876;-58
2022/06/24 08:43:54;;;;;;;13.65;1.90;;;23.50;77.10;23.70;98744.00;;;;4977231;28;86967;-58
2022/06/24 08:46:21;;;;;;;6.82;1.80;;;;;23.50;98734.00;;;;4982570;28;87723;-58
2022/06/24 08:48:49;;;;;;;12.07;2.00;;;23.10;78.50;23.40;98737.00;;;;4982086;28;87512;-56
2022/06/24 08:51:16;;;;;;;6.75;1.73;;;23.40;83.40;23.60;98727.00;;;;4981676;28;87864;-56
2022/06/24 08:53:47;;;;;;;3.00;1.70;;;23.40;82.40;23.70;98726.00;;;;4977554;28;86312;-60
2022/06/24 08:56:13;;;;;;;1.83;1.33;;;;;23.70;98716.00;;;;4981263;28;88744;-61
2022/06/24 08:58:41;;;;;;;5.40;1.95;;;23.40;80.30;23.60;98703.00;;;;4965144;28;88270;-61
2022/06/24 09:01:07;;;;;;;2.58;1.88;;;23.20;76.40;23.50;98717.00;;;;4982564;28;87871;-62
2022/06/24 09:03:33;;;;;;;3.92;1.50;;;;;23.60;98708.00;;;;4982856;28;87033;-61
2022/06/24 09:06:09;;;;;;;4.82;2.15;;;;;23.50;98718.00;;;;4982514;28;88419;-61
2022/06/24 09:08:35;;;;;;;6.97;1.80;;;;;23.60;98714.00;;;;4982493;28;87518;-61
2022/06/24 09:11:07;;;;;;;5.93;1.73;;;23.50;82.10;23.70;98724.00;;;;4982733;28;86836;-61
2022/06/24 09:13:49;;;;;;;2.95;1.77;;;23.30;78.30;23.50;98722.00;;;;4981991;28;87136;-61
2022/06/24 09:16:18;;;;;;;4.32;1.60;;;23.50;82.90;23.70;98713.00;;;;4965376;28;88179;-61
2022/06/24 09:19:00;;;;;;;5.18;2.08;;;23.60;81.80;23.80;98702.00;;;;4982391;28;87443;-61
2022/06/24 09:21:34;;;;;;;3.42;2.00;;;23.80;78.30;24.00;98709.00;;;;4979345;28;86985;-62
2022/06/24 09:24:03;;;;;;;4.40;1.67;;;24.00;83.40;24.20;98717.00;;;;4981724;28;87514;-62
2022/06/24 09:26:30;;;;;;;6.00;1.98;;;;;24.10;98718.00;;;;4980880;28;88886;-61
2022/06/24 09:28:57;;;;;;;6.07;1.55;;;23.80;82.30;24.00;98719.00;;;;4980642;28;88352;-61
2022/06/24 09:31:28;;;;;;;2.10;1.60;;;23.80;77.70;24.10;98705.00;;;;4982220;28;87051;-61
2022/06/24 09:33:55;;;;;;;;;;;24.00;82.30;24.20;98693.00;;;;4982280;28;87229;-61
2022/06/24 09:36:27;;;;;;;5.90;1.60;;;23.90;78.30;24.20;98699.00;;;;4982240;28;87951;-61
2022/06/24 09:39:12;;;;;;;4.57;1.88;;;24.10;77.20;24.30;98697.00;;;;4981805;28;87280;-61
2022/06/24 09:41:47;;;;;;;6.20;2.05;;;24.30;77.50;24.50;98693.00;;;;4975476;28;86994;-61
2022/06/24 09:44:15;;;;;;;6.45;1.70;;;24.30;77.10;24.50;98705.00;;;;4981602;28;86240;-62
2022/06/24 09:46:42;;;;;;;3.50;1.65;;;;;24.60;98688.00;;;;4973012;28;87819;-61
2022/06/24 09:49:17;;;;;;;2.95;1.50;;;24.60;80.90;24.70;98689.00;;;;4980830;28;87349;-62
2022/06/24 09:51:44;;;;;;;6.07;1.77;;;24.60;80.40;24.70;98692.00;;;;4980692;28;87957;-61
2022/06/24 09:54:13;;;;;;;4.05;1.65;;;24.50;74.50;24.60;98688.00;;;;4980652;28;87665;-61
2022/06/24 09:56:40;;;;;;;7.65;1.73;;;24.30;79.50;24.50;98685.00;;;;4980352;28;87714;-61
2022/06/24 10:01:54;;;;;;;3.78;2.10;;;24.40;82.50;24.60;98691.00;;;;4981030;28;86956;-61
2022/06/24 10:04:21;;;;;;;6.05;1.67;;;24.40;81.50;24.60;98689.00;;;;4980913;28;87041;-61
2022/06/24 10:06:49;;;;;;;4.78;2.08;;;24.40;83.00;24.60;98677.00;;;;4981414;28;87951;-61
2022/06/24 10:09:26;;;;;;;7.13;1.83;;;24.40;77.40;24.60;98673.00;;;;4981943;28;87407;-61
2022/06/24 10:11:56;;;;;;;4.70;1.92;;;;;24.80;98667.00;;;;4981820;28;87023;-62
2022/06/24 10:14:24;;;;;;;3.00;1.55;;;24.60;76.90;24.80;98656.00;;;;4968955;28;87542;-62
2022/06/24 10:16:51;;;;;;;5.97;1.73;;;24.60;76.90;24.80;98678.00;;;;4980684;28;88878;-64
2022/06/24 10:19:19;;;;;;;3.45;2.13;;;24.60;77.80;24.90;98678.00;;;;4981773;28;88324;-61
2022/06/24 10:21:48;;;;;;;6.80;2.20;;;24.40;76.70;24.70;98677.00;;;;4963844;28;86955;-61
2022/06/24 10:24:16;;;;;;;8.05;1.80;;;24.00;77.10;24.20;98671.00;;;;4980292;28;86993;-60
2022/06/24 10:26:55;;;;;;;3.60;2.00;;;23.90;77.70;24.20;98678.00;;;;4975768;28;87952;-61
2022/06/24 10:29:26;;;;;;;3.97;1.70;;;24.10;82.10;24.40;98702.00;;;;4980792;28;87523;-61
2022/06/24 10:31:54;;;;;;;3.47;1.77;;;24.30;81.20;24.50;98683.00;;;;4981315;28;87297;-62
2022/06/24 10:34:29;;;;;;;4.70;1.83;;;;;24.60;98679.00;;;;4964113;28;86373;-60
2022/06/24 10:37:12;;;;;;;4.90;2.13;;;24.30;81.80;24.60;98664.00;;;;4980468;28;87702;-62
2022/06/24 10:39:58;;;;;;;4.78;2.00;;;24.30;77.70;24.50;98699.00;;;;4953540;28;88389;-62
2022/06/24 10:42:24;;;;;;;5.70;2.20;;;24.20;77.60;24.50;98660.00;;;;4980403;28;87871;-62
2022/06/24 10:44:58;;;;;;;5.40;2.20;;;;;24.30;98676.00;;;;4964315;28;88077;-62
2022/06/24 10:47:28;;;;;;;5.95;1.98;;;;;24.50;98659.00;;;;4980744;28;87779;-59
2022/06/24 10:49:55;;;;;;;7.18;1.90;;;;;24.60;98689.00;;;;4963320;28;89644;-62
2022/06/24 10:52:48;;;;;;;3.33;1.50;;;24.40;76.00;24.70;98674.00;;;;4981315;28;86972;-62
2022/06/24 10:55:35;;;;;;;4.78;1.67;;;24.30;80.10;24.60;98675.00;;;;4980673;28;87347;-62
2022/06/24 10:58:11;;;;;;;4.25;1.70;;;24.30;75.40;24.60;98669.00;;;;4978368;28;88013;-62
2022/06/24 11:00:37;;;;;;;5.00;2.15;;;;;24.60;98666.00;;;;4977686;28;87297;-62
2022/06/24 11:03:04;;;;;;;4.45;1.90;;;;;24.70;98649.00;;;;4977858;28;87460;-62
2022/06/24 11:05:44;;;;;;;4.47;1.70;;;24.50;79.80;24.80;98674.00;;;;4980362;28;87381;-60
2022/06/24 11:08:16;;;;;;;3.58;1.67;;;24.60;80.60;24.80;98659.00;;;;4980695;28;89313;-60
2022/06/24 11:10:44;;;;;;;9.88;1.83;;;24.50;80.90;24.80;98702.00;;;;4981423;28;88384;-62
2022/06/24 11:13:10;;;;;;;2.97;1.40;;;24.60;74.60;24.80;98699.00;;;;4981188;28;87217;-62
2022/06/24 11:15:39;;;;;;;5.13;1.73;;;24.30;79.20;24.60;98663.00;;;;4980496;28;87709;-62
2022/06/24 11:18:14;;;;;;;3.13;1.65;;;24.40;75.10;24.70;98660.00;;;;4980488;28;86942;-62
2022/06/24 11:21:03;;;;;;;4.38;1.73;;;24.70;78.00;24.90;98660.00;;;;4981335;28;87371;-62
2022/06/24 11:23:34;;;;;;;5.18;1.60;;;24.80;78.90;25.00;98662.00;;;;4965568;28;87004;-62
2022/06/24 11:26:14;;;;;;;3.10;2.10;;;;;24.80;98680.00;;;;4970493;28;86345;-62
2022/06/24 11:28:44;;;;;;;3.97;1.65;;;24.40;79.30;24.70;98663.00;;;;4980022;28;87794;-61
2022/06/24 11:31:17;;;;;;;5.90;1.63;;;24.60;79.20;24.80;98657.00;;;;4962523;28;87098;-62
2022/06/24 11:33:48;;;;;;;6.72;2.05;;;24.70;79.70;25.00;98659.00;;;;4975812;28;88363;-62
2022/06/24 11:36:15;;;;;;;3.03;1.75;;;;;25.00;98649.00;;;;4983909;28;87123;-62
2022/06/24 11:38:52;;;;;;;8.00;2.00;;;24.80;78.60;25.00;98653.00;;;;4983883;28;87672;-62